sensor_id;sensor_type;location;lat;lon;timestamp;P1;durP1;ratioP1;P2;durP2;ratioP2
6513;SDS011;3290;47.716;9.070;2023-02-15T00:01:14;82.67;;;21.20;;
6513;SDS011;3290;47.716;9.070;2023-02-15T00:03:39;84.47;;;19.73;;
6513;SDS011;3290;47.716;9.070;2023-02-15T00:06:04;70.47;;;18.50;;
6513;SDS011;3290;47.716;9.070;2023-02-15T00:08:30;83.03;;;21.07;;
6513;SDS011;3290;47.716;9.070;2023-02-15T00:13:30;80.80;;;19.77;;
6513;SDS011;3290;47.716;9.070;2023-02-15T00:16:00;76.30;;;20.80;;
6513;SDS011;3290;47.716;9.070;2023-02-15T00:18:29;93.20;;;20.13;;
6513;SDS011;3290;47.716;9.070;2023-02-15T00:20:55;91.40;;;20.23;;
6513;SDS011;3290;47.716;9.070;2023-02-15T00:23:21;61.93;;;20.00;;
6513;SDS011;3290;47.716;9.070;2023-02-15T00:25:46;44.73;;;19.23;;
6513;SDS011;3290;47.716;9.070;2023-02-15T00:28:12;65.77;;;19.73;;
6513;SDS011;3290;47.716;9.070;2023-02-15T00:30:37;56.47;;;20.80;;
6513;SDS011;3290;47.716;9.070;2023-02-15T00:33:02;128.87;;;20.90;;
6513;SDS011;3290;47.716;9.070;2023-02-15T00:35:28;66.83;;;20.00;;
6513;SDS011;3290;47.716;9.070;2023-02-15T00:37:53;65.77;;;21.13;;
6513;SDS011;3290;47.716;9.070;2023-02-15T00:40:18;147.17;;;21.83;;
6513;SDS011;3290;47.716;9.070;2023-02-15T00:42:44;78.93;;;21.70;;
6513;SDS011;3290;47.716;9.070;2023-02-15T00:45:09;176.73;;;23.17;;
6513;SDS011;3290;47.716;9.070;2023-02-15T00:47:34;72.60;;;23.13;;
6513;SDS011;3290;47.716;9.070;2023-02-15T00:50:00;73.63;;;22.13;;
6513;SDS011;3290;47.716;9.070;2023-02-15T00:52:25;69.40;;;22.00;;
6513;SDS011;3290;47.716;9.070;2023-02-15T00:54:51;81.53;;;23.10;;
6513;SDS011;3290;47.716;9.070;2023-02-15T00:57:16;88.20;;;22.33;;
6513;SDS011;3290;47.716;9.070;2023-02-15T00:59:42;99.77;;;22.90;;
6513;SDS011;3290;47.716;9.070;2023-02-15T01:02:07;135.07;;;23.10;;
6513;SDS011;3290;47.716;9.070;2023-02-15T01:04:32;79.73;;;22.87;;
6513;SDS011;3290;47.716;9.070;2023-02-15T01:06:58;81.23;;;21.73;;
6513;SDS011;3290;47.716;9.070;2023-02-15T01:09:23;171.33;;;25.50;;
6513;SDS011;3290;47.716;9.070;2023-02-15T01:11:49;94.63;;;22.80;;
6513;SDS011;3290;47.716;9.070;2023-02-15T01:14:14;100.77;;;22.67;;
6513;SDS011;3290;47.716;9.070;2023-02-15T01:16:39;98.50;;;24.00;;
6513;SDS011;3290;47.716;9.070;2023-02-15T01:19:05;130.50;;;24.53;;
6513;SDS011;3290;47.716;9.070;2023-02-15T01:21:31;145.53;;;25.90;;
6513;SDS011;3290;47.716;9.070;2023-02-15T01:23:59;129.23;;;23.83;;
6513;SDS011;3290;47.716;9.070;2023-02-15T01:26:24;115.23;;;23.43;;
6513;SDS011;3290;47.716;9.070;2023-02-15T01:28:50;96.70;;;25.57;;
6513;SDS011;3290;47.716;9.070;2023-02-15T01:31:16;114.00;;;23.70;;
6513;SDS011;3290;47.716;9.070;2023-02-15T01:33:42;88.93;;;25.20;;
6513;SDS011;3290;47.716;9.070;2023-02-15T01:36:08;157.10;;;24.90;;
6513;SDS011;3290;47.716;9.070;2023-02-15T01:38:34;147.77;;;24.80;;
6513;SDS011;3290;47.716;9.070;2023-02-15T01:41:00;142.67;;;24.43;;
6513;SDS011;3290;47.716;9.070;2023-02-15T01:43:45;98.83;;;22.97;;
6513;SDS011;3290;47.716;9.070;2023-02-15T01:46:12;189.40;;;23.57;;
6513;SDS011;3290;47.716;9.070;2023-02-15T01:48:42;102.00;;;24.33;;
6513;SDS011;3290;47.716;9.070;2023-02-15T01:51:11;119.80;;;23.37;;
6513;SDS011;3290;47.716;9.070;2023-02-15T01:53:38;83.17;;;21.80;;
6513;SDS011;3290;47.716;9.070;2023-02-15T01:58:38;114.20;;;22.70;;
6513;SDS011;3290;47.716;9.070;2023-02-15T02:01:03;154.27;;;22.83;;
6513;SDS011;3290;47.716;9.070;2023-02-15T02:03:41;150.20;;;24.90;;
6513;SDS011;3290;47.716;9.070;2023-02-15T02:06:15;168.97;;;24.57;;
6513;SDS011;3290;47.716;9.070;2023-02-15T02:08:41;264.77;;;26.03;;
6513;SDS011;3290;47.716;9.070;2023-02-15T02:11:11;214.20;;;22.87;;
6513;SDS011;3290;47.716;9.070;2023-02-15T02:13:38;236.93;;;25.10;;
6513;SDS011;3290;47.716;9.070;2023-02-15T02:16:09;135.37;;;25.20;;
6513;SDS011;3290;47.716;9.070;2023-02-15T02:43:29;92.03;;;20.83;;
6513;SDS011;3290;47.716;9.070;2023-02-15T02:46:22;163.87;;;21.60;;
6513;SDS011;3290;47.716;9.070;2023-02-15T02:48:56;206.97;;;23.13;;
6513;SDS011;3290;47.716;9.070;2023-02-15T02:51:21;164.73;;;21.83;;
6513;SDS011;3290;47.716;9.070;2023-02-15T02:53:51;190.03;;;25.23;;
6513;SDS011;3290;47.716;9.070;2023-02-15T02:56:21;169.70;;;22.30;;
6513;SDS011;3290;47.716;9.070;2023-02-15T02:58:54;221.93;;;22.63;;
6513;SDS011;3290;47.716;9.070;2023-02-15T03:01:24;106.13;;;23.27;;
6513;SDS011;3290;47.716;9.070;2023-02-15T03:03:57;160.10;;;23.50;;
6513;SDS011;3290;47.716;9.070;2023-02-15T03:06:45;126.30;;;22.67;;
6513;SDS011;3290;47.716;9.070;2023-02-15T03:09:25;110.83;;;21.70;;
6513;SDS011;3290;47.716;9.070;2023-02-15T03:12:11;105.80;;;22.27;;
6513;SDS011;3290;47.716;9.070;2023-02-15T03:14:40;82.27;;;21.40;;
6513;SDS011;3290;47.716;9.070;2023-02-15T03:17:07;185.93;;;23.37;;
6513;SDS011;3290;47.716;9.070;2023-02-15T03:19:35;162.60;;;21.80;;
6513;SDS011;3290;47.716;9.070;2023-02-15T03:22:06;86.70;;;20.27;;
6513;SDS011;3290;47.716;9.070;2023-02-15T03:24:57;101.47;;;21.10;;
6513;SDS011;3290;47.716;9.070;2023-02-15T03:27:27;132.83;;;20.37;;
6513;SDS011;3290;47.716;9.070;2023-02-15T03:30:07;111.27;;;22.30;;
6513;SDS011;3290;47.716;9.070;2023-02-15T03:32:35;79.47;;;19.83;;
6513;SDS011;3290;47.716;9.070;2023-02-15T03:35:03;88.20;;;20.40;;
6513;SDS011;3290;47.716;9.070;2023-02-15T03:37:35;107.03;;;20.50;;
6513;SDS011;3290;47.716;9.070;2023-02-15T03:43:03;83.20;;;21.97;;
6513;SDS011;3290;47.716;9.070;2023-02-15T03:45:37;173.17;;;23.97;;
6513;SDS011;3290;47.716;9.070;2023-02-15T03:48:19;179.17;;;23.90;;
6513;SDS011;3290;47.716;9.070;2023-02-15T03:50:49;89.83;;;20.17;;
6513;SDS011;3290;47.716;9.070;2023-02-15T03:53:35;178.67;;;20.93;;
6513;SDS011;3290;47.716;9.070;2023-02-15T03:56:01;121.27;;;20.40;;
6513;SDS011;3290;47.716;9.070;2023-02-15T03:58:27;156.37;;;21.17;;
6513;SDS011;3290;47.716;9.070;2023-02-15T04:01:13;114.67;;;21.23;;
6513;SDS011;3290;47.716;9.070;2023-02-15T04:04:12;213.20;;;23.93;;
6513;SDS011;3290;47.716;9.070;2023-02-15T04:06:43;81.47;;;21.40;;
6513;SDS011;3290;47.716;9.070;2023-02-15T04:09:08;103.37;;;21.90;;
6513;SDS011;3290;47.716;9.070;2023-02-15T04:11:52;172.63;;;21.70;;
6513;SDS011;3290;47.716;9.070;2023-02-15T04:14:17;225.60;;;22.50;;
6513;SDS011;3290;47.716;9.070;2023-02-15T04:17:04;206.63;;;22.33;;
6513;SDS011;3290;47.716;9.070;2023-02-15T04:19:31;210.53;;;22.40;;
6513;SDS011;3290;47.716;9.070;2023-02-15T04:22:15;128.63;;;19.50;;
6513;SDS011;3290;47.716;9.070;2023-02-15T04:24:59;122.33;;;19.20;;
6513;SDS011;3290;47.716;9.070;2023-02-15T04:27:36;140.40;;;21.33;;
6513;SDS011;3290;47.716;9.070;2023-02-15T04:30:03;154.07;;;21.27;;
6513;SDS011;3290;47.716;9.070;2023-02-15T04:32:29;141.03;;;21.00;;
6513;SDS011;3290;47.716;9.070;2023-02-15T04:34:54;214.07;;;22.30;;
6513;SDS011;3290;47.716;9.070;2023-02-15T04:37:19;81.23;;;19.07;;
6513;SDS011;3290;47.716;9.070;2023-02-15T04:39:45;171.87;;;22.60;;
6513;SDS011;3290;47.716;9.070;2023-02-15T04:42:10;221.63;;;21.20;;
6513;SDS011;3290;47.716;9.070;2023-02-15T04:44:35;95.67;;;22.33;;
6513;SDS011;3290;47.716;9.070;2023-02-15T04:47:01;151.53;;;21.00;;
6513;SDS011;3290;47.716;9.070;2023-02-15T04:49:26;158.07;;;19.80;;
6513;SDS011;3290;47.716;9.070;2023-02-15T04:51:51;91.60;;;18.93;;
6513;SDS011;3290;47.716;9.070;2023-02-15T04:54:17;132.47;;;21.23;;
6513;SDS011;3290;47.716;9.070;2023-02-15T04:56:42;92.13;;;18.57;;
6513;SDS011;3290;47.716;9.070;2023-02-15T04:59:11;79.80;;;20.30;;
6513;SDS011;3290;47.716;9.070;2023-02-15T05:01:37;126.00;;;19.20;;
6513;SDS011;3290;47.716;9.070;2023-02-15T05:04:02;170.90;;;21.53;;
6513;SDS011;3290;47.716;9.070;2023-02-15T05:06:28;91.07;;;20.00;;
6513;SDS011;3290;47.716;9.070;2023-02-15T05:08:54;152.13;;;22.97;;
6513;SDS011;3290;47.716;9.070;2023-02-15T05:11:19;135.77;;;22.10;;
6513;SDS011;3290;47.716;9.070;2023-02-15T05:13:44;95.33;;;21.17;;
6513;SDS011;3290;47.716;9.070;2023-02-15T05:16:10;71.13;;;19.03;;
6513;SDS011;3290;47.716;9.070;2023-02-15T05:18:35;83.07;;;18.93;;
6513;SDS011;3290;47.716;9.070;2023-02-15T05:21:00;101.37;;;20.63;;
6513;SDS011;3290;47.716;9.070;2023-02-15T05:23:26;68.73;;;19.87;;
6513;SDS011;3290;47.716;9.070;2023-02-15T05:25:51;182.10;;;22.33;;
6513;SDS011;3290;47.716;9.070;2023-02-15T05:28:36;145.50;;;21.63;;
6513;SDS011;3290;47.716;9.070;2023-02-15T05:33:28;220.37;;;23.77;;
6513;SDS011;3290;47.716;9.070;2023-02-15T05:35:53;283.00;;;24.17;;
6513;SDS011;3290;47.716;9.070;2023-02-15T05:38:19;153.47;;;22.47;;
6513;SDS011;3290;47.716;9.070;2023-02-15T05:40:44;92.10;;;22.57;;
6513;SDS011;3290;47.716;9.070;2023-02-15T05:43:09;203.07;;;24.03;;
6513;SDS011;3290;47.716;9.070;2023-02-15T05:45:35;217.50;;;25.63;;
6513;SDS011;3290;47.716;9.070;2023-02-15T05:48:00;72.93;;;20.83;;
6513;SDS011;3290;47.716;9.070;2023-02-15T05:50:25;246.77;;;24.77;;
6513;SDS011;3290;47.716;9.070;2023-02-15T05:52:51;116.50;;;22.30;;
6513;SDS011;3290;47.716;9.070;2023-02-15T05:55:17;124.60;;;24.30;;
6513;SDS011;3290;47.716;9.070;2023-02-15T05:57:42;219.57;;;25.47;;
6513;SDS011;3290;47.716;9.070;2023-02-15T06:00:07;123.90;;;23.27;;
6513;SDS011;3290;47.716;9.070;2023-02-15T06:02:37;70.23;;;22.73;;
6513;SDS011;3290;47.716;9.070;2023-02-15T06:05:03;82.67;;;20.27;;
6513;SDS011;3290;47.716;9.070;2023-02-15T06:07:30;77.17;;;25.57;;
6513;SDS011;3290;47.716;9.070;2023-02-15T06:09:55;116.80;;;22.97;;
6513;SDS011;3290;47.716;9.070;2023-02-15T06:12:20;84.23;;;22.40;;
6513;SDS011;3290;47.716;9.070;2023-02-15T06:14:46;54.00;;;19.90;;
6513;SDS011;3290;47.716;9.070;2023-02-15T06:17:12;59.57;;;21.40;;
6513;SDS011;3290;47.716;9.070;2023-02-15T06:19:37;103.97;;;24.17;;
6513;SDS011;3290;47.716;9.070;2023-02-15T06:22:02;155.93;;;23.80;;
6513;SDS011;3290;47.716;9.070;2023-02-15T06:24:28;109.37;;;21.47;;
6513;SDS011;3290;47.716;9.070;2023-02-15T06:26:53;93.73;;;22.30;;
6513;SDS011;3290;47.716;9.070;2023-02-15T06:29:18;83.17;;;22.50;;
6513;SDS011;3290;47.716;9.070;2023-02-15T06:31:44;74.03;;;20.50;;
6513;SDS011;3290;47.716;9.070;2023-02-15T06:34:09;99.20;;;21.30;;
6513;SDS011;3290;47.716;9.070;2023-02-15T06:36:34;70.43;;;21.43;;
6513;SDS011;3290;47.716;9.070;2023-02-15T06:39:00;91.67;;;22.40;;
6513;SDS011;3290;47.716;9.070;2023-02-15T06:41:27;75.03;;;23.87;;
6513;SDS011;3290;47.716;9.070;2023-02-15T06:43:52;81.47;;;23.50;;
6513;SDS011;3290;47.716;9.070;2023-02-15T06:46:17;73.33;;;22.13;;
6513;SDS011;3290;47.716;9.070;2023-02-15T06:48:43;86.07;;;22.40;;
6513;SDS011;3290;47.716;9.070;2023-02-15T06:51:08;65.13;;;23.97;;
6513;SDS011;3290;47.716;9.070;2023-02-15T06:53:33;79.33;;;22.90;;
6513;SDS011;3290;47.716;9.070;2023-02-15T06:56:01;70.83;;;22.27;;
6513;SDS011;3290;47.716;9.070;2023-02-15T06:58:40;62.07;;;22.00;;
6513;SDS011;3290;47.716;9.070;2023-02-15T07:01:06;72.83;;;24.40;;
6513;SDS011;3290;47.716;9.070;2023-02-15T07:03:33;67.70;;;21.10;;
6513;SDS011;3290;47.716;9.070;2023-02-15T07:06:00;59.63;;;22.27;;
6513;SDS011;3290;47.716;9.070;2023-02-15T07:08:27;81.77;;;21.63;;
6513;SDS011;3290;47.716;9.070;2023-02-15T07:10:53;79.33;;;21.63;;
6513;SDS011;3290;47.716;9.070;2023-02-15T07:13:19;61.27;;;20.10;;
6513;SDS011;3290;47.716;9.070;2023-02-15T07:15:45;70.20;;;22.33;;
6513;SDS011;3290;47.716;9.070;2023-02-15T07:18:12;80.30;;;22.40;;
6513;SDS011;3290;47.716;9.070;2023-02-15T07:20:37;62.70;;;20.80;;
6513;SDS011;3290;47.716;9.070;2023-02-15T07:23:03;93.40;;;22.87;;
6513;SDS011;3290;47.716;9.070;2023-02-15T07:25:30;61.30;;;21.37;;
6513;SDS011;3290;47.716;9.070;2023-02-15T07:27:56;90.27;;;23.20;;
6513;SDS011;3290;47.716;9.070;2023-02-15T07:30:23;70.93;;;23.07;;
6513;SDS011;3290;47.716;9.070;2023-02-15T07:32:48;127.20;;;24.93;;
6513;SDS011;3290;47.716;9.070;2023-02-15T07:35:32;80.63;;;23.20;;
6513;SDS011;3290;47.716;9.070;2023-02-15T07:37:58;81.03;;;21.83;;
6513;SDS011;3290;47.716;9.070;2023-02-15T07:40:24;59.43;;;22.87;;
6513;SDS011;3290;47.716;9.070;2023-02-15T07:42:50;93.00;;;20.60;;
6513;SDS011;3290;47.716;9.070;2023-02-15T07:45:18;90.30;;;21.03;;
6513;SDS011;3290;47.716;9.070;2023-02-15T07:47:43;131.20;;;21.90;;
6513;SDS011;3290;47.716;9.070;2023-02-15T07:50:09;93.10;;;21.83;;
6513;SDS011;3290;47.716;9.070;2023-02-15T07:52:34;102.80;;;21.83;;
6513;SDS011;3290;47.716;9.070;2023-02-15T07:54:59;86.43;;;21.97;;
6513;SDS011;3290;47.716;9.070;2023-02-15T07:57:25;74.93;;;21.50;;
6513;SDS011;3290;47.716;9.070;2023-02-15T07:59:50;70.60;;;22.30;;
6513;SDS011;3290;47.716;9.070;2023-02-15T08:02:15;96.60;;;23.13;;
6513;SDS011;3290;47.716;9.070;2023-02-15T08:04:40;124.83;;;23.83;;
6513;SDS011;3290;47.716;9.070;2023-02-15T08:07:06;62.60;;;22.73;;
6513;SDS011;3290;47.716;9.070;2023-02-15T08:09:32;68.93;;;23.10;;
6513;SDS011;3290;47.716;9.070;2023-02-15T08:11:57;55.87;;;21.43;;
6513;SDS011;3290;47.716;9.070;2023-02-15T08:14:22;79.50;;;22.57;;
6513;SDS011;3290;47.716;9.070;2023-02-15T08:16:52;74.93;;;20.77;;
6513;SDS011;3290;47.716;9.070;2023-02-15T08:21:54;56.37;;;20.53;;
6513;SDS011;3290;47.716;9.070;2023-02-15T08:24:22;72.57;;;22.30;;
6513;SDS011;3290;47.716;9.070;2023-02-15T08:26:49;85.50;;;21.70;;
6513;SDS011;3290;47.716;9.070;2023-02-15T08:29:15;75.20;;;22.90;;
6513;SDS011;3290;47.716;9.070;2023-02-15T08:31:42;73.47;;;21.60;;
6513;SDS011;3290;47.716;9.070;2023-02-15T08:34:09;111.67;;;23.90;;
6513;SDS011;3290;47.716;9.070;2023-02-15T08:36:36;153.00;;;23.27;;
6513;SDS011;3290;47.716;9.070;2023-02-15T08:39:03;70.77;;;20.90;;
6513;SDS011;3290;47.716;9.070;2023-02-15T08:41:32;76.80;;;22.37;;
6513;SDS011;3290;47.716;9.070;2023-02-15T08:44:00;99.27;;;23.13;;
6513;SDS011;3290;47.716;9.070;2023-02-15T08:46:29;60.50;;;22.87;;
6513;SDS011;3290;47.716;9.070;2023-02-15T08:48:55;57.53;;;20.07;;
6513;SDS011;3290;47.716;9.070;2023-02-15T08:51:22;96.47;;;21.00;;
6513;SDS011;3290;47.716;9.070;2023-02-15T08:53:50;52.27;;;20.13;;
6513;SDS011;3290;47.716;9.070;2023-02-15T08:56:21;60.20;;;18.87;;
6513;SDS011;3290;47.716;9.070;2023-02-15T08:58:52;65.87;;;21.93;;
6513;SDS011;3290;47.716;9.070;2023-02-15T09:01:18;63.83;;;21.30;;
6513;SDS011;3290;47.716;9.070;2023-02-15T09:03:46;62.83;;;20.50;;
6513;SDS011;3290;47.716;9.070;2023-02-15T09:06:14;48.20;;;20.50;;
6513;SDS011;3290;47.716;9.070;2023-02-15T09:08:41;48.47;;;19.70;;
6513;SDS011;3290;47.716;9.070;2023-02-15T09:11:07;61.50;;;22.50;;
6513;SDS011;3290;47.716;9.070;2023-02-15T09:13:35;72.60;;;23.07;;
6513;SDS011;3290;47.716;9.070;2023-02-15T09:16:02;62.30;;;23.00;;
6513;SDS011;3290;47.716;9.070;2023-02-15T09:18:32;67.13;;;21.50;;
6513;SDS011;3290;47.716;9.070;2023-02-15T09:21:05;65.17;;;21.27;;
6513;SDS011;3290;47.716;9.070;2023-02-15T09:23:32;68.53;;;21.67;;
6513;SDS011;3290;47.716;9.070;2023-02-15T09:26:01;55.03;;;20.53;;
6513;SDS011;3290;47.716;9.070;2023-02-15T09:28:28;50.13;;;19.13;;
6513;SDS011;3290;47.716;9.070;2023-02-15T09:30:53;51.50;;;20.93;;
6513;SDS011;3290;47.716;9.070;2023-02-15T09:33:18;60.23;;;21.83;;
6513;SDS011;3290;47.716;9.070;2023-02-15T09:35:44;62.90;;;21.90;;
6513;SDS011;3290;47.716;9.070;2023-02-15T09:38:09;53.20;;;21.50;;
6513;SDS011;3290;47.716;9.070;2023-02-15T09:40:38;57.83;;;19.10;;
6513;SDS011;3290;47.716;9.070;2023-02-15T09:46:50;85.60;;;32.20;;
6513;SDS011;3290;47.716;9.070;2023-02-15T09:49:25;54.80;;;23.00;;
6513;SDS011;3290;47.716;9.070;2023-02-15T09:57:23;54.83;;;20.20;;
6513;SDS011;3290;47.716;9.070;2023-02-15T10:05:42;62.47;;;19.27;;
6513;SDS011;3290;47.716;9.070;2023-02-15T10:28:23;60.40;;;21.97;;
6513;SDS011;3290;47.716;9.070;2023-02-15T10:30:52;61.53;;;19.77;;
6513;SDS011;3290;47.716;9.070;2023-02-15T10:52:05;47.87;;;19.17;;
6513;SDS011;3290;47.716;9.070;2023-02-15T10:57:34;75.20;;;18.77;;
6513;SDS011;3290;47.716;9.070;2023-02-15T11:00:08;63.30;;;17.53;;
6513;SDS011;3290;47.716;9.070;2023-02-15T11:05:14;40.53;;;18.60;;
6513;SDS011;3290;47.716;9.070;2023-02-15T11:07:43;40.83;;;18.63;;
6513;SDS011;3290;47.716;9.070;2023-02-15T11:12:56;44.93;;;20.57;;
6513;SDS011;3290;47.716;9.070;2023-02-15T11:18:19;46.90;;;21.13;;
6513;SDS011;3290;47.716;9.070;2023-02-15T11:23:51;38.90;;;19.00;;
6513;SDS011;3290;47.716;9.070;2023-02-15T11:29:25;34.80;;;18.03;;
6513;SDS011;3290;47.716;9.070;2023-02-15T11:31:55;35.57;;;17.30;;
6513;SDS011;3290;47.716;9.070;2023-02-15T11:37:05;44.47;;;21.03;;
6513;SDS011;3290;47.716;9.070;2023-02-15T11:39:34;34.63;;;16.70;;
6513;SDS011;3290;47.716;9.070;2023-02-15T11:42:01;33.60;;;15.10;;
6513;SDS011;3290;47.716;9.070;2023-02-15T11:44:44;34.23;;;16.77;;
6513;SDS011;3290;47.716;9.070;2023-02-15T11:47:20;37.57;;;17.53;;
6513;SDS011;3290;47.716;9.070;2023-02-15T11:49:45;46.93;;;26.00;;
6513;SDS011;3290;47.716;9.070;2023-02-15T11:52:12;34.53;;;16.70;;
6513;SDS011;3290;47.716;9.070;2023-02-15T11:54:41;30.53;;;17.33;;
6513;SDS011;3290;47.716;9.070;2023-02-15T11:59:49;45.10;;;19.47;;
6513;SDS011;3290;47.716;9.070;2023-02-15T12:02:21;48.27;;;25.03;;
6513;SDS011;3290;47.716;9.070;2023-02-15T12:04:49;64.27;;;31.17;;
6513;SDS011;3290;47.716;9.070;2023-02-15T12:07:24;30.10;;;15.50;;
6513;SDS011;3290;47.716;9.070;2023-02-15T12:09:56;31.03;;;15.93;;
6513;SDS011;3290;47.716;9.070;2023-02-15T12:12:35;35.97;;;17.57;;
6513;SDS011;3290;47.716;9.070;2023-02-15T12:15:02;38.53;;;16.90;;
6513;SDS011;3290;47.716;9.070;2023-02-15T12:17:55;29.93;;;16.13;;
6513;SDS011;3290;47.716;9.070;2023-02-15T12:22:59;33.23;;;17.50;;
6513;SDS011;3290;47.716;9.070;2023-02-15T12:27:59;36.40;;;17.97;;
6513;SDS011;3290;47.716;9.070;2023-02-15T12:30:27;35.97;;;18.20;;
6513;SDS011;3290;47.716;9.070;2023-02-15T12:32:56;36.70;;;18.70;;
6513;SDS011;3290;47.716;9.070;2023-02-15T12:35:29;65.20;;;27.53;;
6513;SDS011;3290;47.716;9.070;2023-02-15T12:38:00;36.97;;;18.63;;
6513;SDS011;3290;47.716;9.070;2023-02-15T12:40:30;35.30;;;17.37;;
6513;SDS011;3290;47.716;9.070;2023-02-15T12:42:56;35.80;;;16.80;;
6513;SDS011;3290;47.716;9.070;2023-02-15T12:45:33;38.50;;;18.83;;
6513;SDS011;3290;47.716;9.070;2023-02-15T12:48:13;34.87;;;17.07;;
6513;SDS011;3290;47.716;9.070;2023-02-15T12:50:47;34.30;;;16.63;;
6513;SDS011;3290;47.716;9.070;2023-02-15T12:53:18;31.13;;;16.63;;
6513;SDS011;3290;47.716;9.070;2023-02-15T12:55:59;33.70;;;17.90;;
6513;SDS011;3290;47.716;9.070;2023-02-15T13:01:11;42.10;;;20.57;;
6513;SDS011;3290;47.716;9.070;2023-02-15T13:06:22;36.47;;;16.73;;
6513;SDS011;3290;47.716;9.070;2023-02-15T13:08:49;30.57;;;16.17;;
6513;SDS011;3290;47.716;9.070;2023-02-15T13:11:21;36.90;;;16.50;;
6513;SDS011;3290;47.716;9.070;2023-02-15T13:13:52;40.40;;;19.00;;
6513;SDS011;3290;47.716;9.070;2023-02-15T13:16:31;29.60;;;16.67;;
6513;SDS011;3290;47.716;9.070;2023-02-15T13:18:59;34.67;;;17.20;;
6513;SDS011;3290;47.716;9.070;2023-02-15T13:21:48;32.97;;;16.97;;
6513;SDS011;3290;47.716;9.070;2023-02-15T13:24:21;32.93;;;17.97;;
6513;SDS011;3290;47.716;9.070;2023-02-15T13:26:55;29.77;;;15.87;;
6513;SDS011;3290;47.716;9.070;2023-02-15T13:29:24;34.13;;;15.77;;
6513;SDS011;3290;47.716;9.070;2023-02-15T13:31:53;30.80;;;15.33;;
6513;SDS011;3290;47.716;9.070;2023-02-15T13:34:22;31.00;;;16.20;;
6513;SDS011;3290;47.716;9.070;2023-02-15T13:39:40;34.83;;;17.93;;
6513;SDS011;3290;47.716;9.070;2023-02-15T13:53:24;32.30;;;16.90;;
6513;SDS011;3290;47.716;9.070;2023-02-15T13:55:57;30.67;;;16.20;;
6513;SDS011;3290;47.716;9.070;2023-02-15T14:04:48;36.60;;;19.47;;
6513;SDS011;3290;47.716;9.070;2023-02-15T14:07:47;34.60;;;18.73;;
6513;SDS011;3290;47.716;9.070;2023-02-15T14:10:20;38.63;;;19.73;;
6513;SDS011;3290;47.716;9.070;2023-02-15T14:21:25;45.93;;;19.97;;
6513;SDS011;3290;47.716;9.070;2023-02-15T14:32:10;42.40;;;18.40;;
6513;SDS011;3290;47.716;9.070;2023-02-15T14:34:48;42.80;;;19.47;;
6513;SDS011;3290;47.716;9.070;2023-02-15T14:37:19;34.50;;;17.57;;
6513;SDS011;3290;47.716;9.070;2023-02-15T14:39:53;38.97;;;18.50;;
6513;SDS011;3290;47.716;9.070;2023-02-15T14:42:53;52.90;;;16.93;;
6513;SDS011;3290;47.716;9.070;2023-02-15T14:48:31;42.03;;;19.63;;
6513;SDS011;3290;47.716;9.070;2023-02-15T14:51:03;50.37;;;20.07;;
6513;SDS011;3290;47.716;9.070;2023-02-15T14:56:19;58.33;;;18.97;;
6513;SDS011;3290;47.716;9.070;2023-02-15T15:01:15;114.40;;;21.30;;
6513;SDS011;3290;47.716;9.070;2023-02-15T15:03:47;64.57;;;20.40;;
6513;SDS011;3290;47.716;9.070;2023-02-15T15:06:26;60.20;;;19.70;;
6513;SDS011;3290;47.716;9.070;2023-02-15T15:09:27;62.30;;;19.53;;
6513;SDS011;3290;47.716;9.070;2023-02-15T15:11:51;41.17;;;20.00;;
6513;SDS011;3290;47.716;9.070;2023-02-15T15:14:38;66.97;;;17.50;;
6513;SDS011;3290;47.716;9.070;2023-02-15T15:17:11;67.10;;;17.30;;
6513;SDS011;3290;47.716;9.070;2023-02-15T15:22:23;59.77;;;17.10;;
6513;SDS011;3290;47.716;9.070;2023-02-15T15:24:51;61.23;;;17.80;;
6513;SDS011;3290;47.716;9.070;2023-02-15T15:27:38;53.80;;;17.10;;
6513;SDS011;3290;47.716;9.070;2023-02-15T15:32:38;57.73;;;18.50;;
6513;SDS011;3290;47.716;9.070;2023-02-15T15:35:12;41.03;;;16.33;;
6513;SDS011;3290;47.716;9.070;2023-02-15T15:49:23;47.40;;;17.70;;
6513;SDS011;3290;47.716;9.070;2023-02-15T15:51:53;66.40;;;16.90;;
6513;SDS011;3290;47.716;9.070;2023-02-15T15:54:19;103.93;;;19.43;;
6513;SDS011;3290;47.716;9.070;2023-02-15T15:56:48;107.93;;;18.20;;
6513;SDS011;3290;47.716;9.070;2023-02-15T15:59:20;99.30;;;18.83;;
6513;SDS011;3290;47.716;9.070;2023-02-15T16:01:49;146.50;;;21.17;;
6513;SDS011;3290;47.716;9.070;2023-02-15T16:04:22;105.00;;;20.70;;
6513;SDS011;3290;47.716;9.070;2023-02-15T16:06:49;215.00;;;23.70;;
6513;SDS011;3290;47.716;9.070;2023-02-15T16:11:48;57.23;;;18.60;;
6513;SDS011;3290;47.716;9.070;2023-02-15T16:16:55;129.37;;;19.63;;
6513;SDS011;3290;47.716;9.070;2023-02-15T16:19:24;209.53;;;26.60;;
6513;SDS011;3290;47.716;9.070;2023-02-15T16:21:53;241.13;;;24.60;;
6513;SDS011;3290;47.716;9.070;2023-02-15T16:29:38;195.73;;;22.00;;
6513;SDS011;3290;47.716;9.070;2023-02-15T16:32:04;80.83;;;21.20;;
6513;SDS011;3290;47.716;9.070;2023-02-15T16:34:57;103.90;;;22.37;;
6513;SDS011;3290;47.716;9.070;2023-02-15T16:37:27;162.30;;;22.13;;
6513;SDS011;3290;47.716;9.070;2023-02-15T16:39:57;133.60;;;23.27;;
6513;SDS011;3290;47.716;9.070;2023-02-15T16:42:24;158.30;;;22.63;;
6513;SDS011;3290;47.716;9.070;2023-02-15T16:45:34;311.70;;;25.20;;
6513;SDS011;3290;47.716;9.070;2023-02-15T16:47:42;206.20;;;20.90;;
6513;SDS011;3290;47.716;9.070;2023-02-15T16:52:58;151.87;;;29.50;;
6513;SDS011;3290;47.716;9.070;2023-02-15T16:55:28;176.47;;;21.53;;
6513;SDS011;3290;47.716;9.070;2023-02-15T16:58:00;244.37;;;27.13;;
6513;SDS011;3290;47.716;9.070;2023-02-15T17:00:31;192.97;;;23.93;;
6513;SDS011;3290;47.716;9.070;2023-02-15T17:05:33;185.50;;;24.80;;
6513;SDS011;3290;47.716;9.070;2023-02-15T17:08:12;104.57;;;24.27;;
6513;SDS011;3290;47.716;9.070;2023-02-15T17:10:39;265.13;;;34.80;;
6513;SDS011;3290;47.716;9.070;2023-02-15T17:13:13;262.50;;;36.80;;
6513;SDS011;3290;47.716;9.070;2023-02-15T17:15:44;187.07;;;35.83;;
6513;SDS011;3290;47.716;9.070;2023-02-15T17:18:33;145.80;;;27.67;;
6513;SDS011;3290;47.716;9.070;2023-02-15T17:21:11;167.27;;;29.33;;
6513;SDS011;3290;47.716;9.070;2023-02-15T17:23:45;146.03;;;30.50;;
6513;SDS011;3290;47.716;9.070;2023-02-15T17:28:49;120.57;;;22.50;;
6513;SDS011;3290;47.716;9.070;2023-02-15T17:31:21;222.60;;;25.10;;
6513;SDS011;3290;47.716;9.070;2023-02-15T17:33:50;104.13;;;20.83;;
6513;SDS011;3290;47.716;9.070;2023-02-15T17:36:20;116.97;;;21.83;;
6513;SDS011;3290;47.716;9.070;2023-02-15T17:41:25;97.50;;;26.67;;
6513;SDS011;3290;47.716;9.070;2023-02-15T17:43:52;122.53;;;27.30;;
6513;SDS011;3290;47.716;9.070;2023-02-15T17:46:18;189.87;;;24.40;;
6513;SDS011;3290;47.716;9.070;2023-02-15T17:48:47;136.97;;;24.80;;
6513;SDS011;3290;47.716;9.070;2023-02-15T17:51:14;200.07;;;21.53;;
6513;SDS011;3290;47.716;9.070;2023-02-15T17:53:41;168.17;;;20.00;;
6513;SDS011;3290;47.716;9.070;2023-02-15T17:56:31;143.17;;;19.33;;
6513;SDS011;3290;47.716;9.070;2023-02-15T17:58:57;88.60;;;18.40;;
6513;SDS011;3290;47.716;9.070;2023-02-15T18:01:22;86.97;;;17.60;;
6513;SDS011;3290;47.716;9.070;2023-02-15T18:04:13;37.80;;;15.53;;
6513;SDS011;3290;47.716;9.070;2023-02-15T18:06:57;26.53;;;15.03;;
6513;SDS011;3290;47.716;9.070;2023-02-15T18:09:42;91.87;;;20.47;;
6513;SDS011;3290;47.716;9.070;2023-02-15T18:12:27;85.70;;;22.50;;
6513;SDS011;3290;47.716;9.070;2023-02-15T18:14:54;165.13;;;25.63;;
6513;SDS011;3290;47.716;9.070;2023-02-15T18:17:26;45.20;;;22.70;;
6513;SDS011;3290;47.716;9.070;2023-02-15T18:19:54;51.43;;;21.27;;
6513;SDS011;3290;47.716;9.070;2023-02-15T18:22:20;52.50;;;20.10;;
6513;SDS011;3290;47.716;9.070;2023-02-15T18:24:48;68.27;;;21.47;;
6513;SDS011;3290;47.716;9.070;2023-02-15T18:27:14;72.07;;;22.20;;